createdAt,value
2023-03-25T00:00:17.518Z,109.63
2023-03-25T00:02:46.242Z,109.65
2023-03-25T00:05:14.959Z,110.08
2023-03-25T00:07:42.902Z,109.15
2023-03-25T00:10:11.289Z,110.13
2023-03-25T00:12:38.742Z,110.45
2023-03-25T00:15:10.885Z,110.31
2023-03-25T00:17:38.576Z,110.87
2023-03-25T00:20:11.115Z,110.90
2023-03-25T00:22:41.513Z,110.54
2023-03-25T00:25:17.089Z,110.64
2023-03-25T00:27:46.376Z,110.78
2023-03-25T00:30:18.347Z,110.42
2023-03-25T00:32:49.786Z,110.52
2023-03-25T00:35:19.378Z,110.54
2023-03-25T00:37:48.173Z,110.68
2023-03-25T00:40:15.019Z,111.10
2023-03-25T00:42:44.911Z,111.61
2023-03-25T00:45:14.703Z,111.90
2023-03-25T00:47:41.631Z,111.95
2023-03-25T00:50:08.770Z,111.99
2023-03-25T00:52:35.707Z,112.19
2023-03-25T00:55:02.779Z,112.80
2023-03-25T00:57:29.584Z,112.27
2023-03-25T00:59:56.319Z,112.85
2023-03-25T01:02:23.884Z,113.76
2023-03-25T01:04:50.848Z,112.96
2023-03-25T01:07:20.747Z,112.64
2023-03-25T01:09:48.741Z,112.51
2023-03-25T01:12:16.111Z,112.48
2023-03-25T01:14:43.635Z,112.56
2023-03-25T01:17:11.140Z,112.79
2023-03-25T01:19:37.963Z,112.45
2023-03-25T01:22:05.486Z,113.90
2023-03-25T01:24:32.519Z,114.53
2023-03-25T01:26:59.340Z,116.16
2023-03-25T01:29:26.111Z,117.31
2023-03-25T01:31:53.713Z,117.22
2023-03-25T01:34:20.461Z,117.96
2023-03-25T01:36:47.267Z,118.23
2023-03-25T01:39:16.645Z,117.86
2023-03-25T01:41:50.236Z,117.91
2023-03-25T01:44:21.000Z,118.18
2023-03-25T01:46:49.646Z,117.95
2023-03-25T01:49:26.439Z,118.14
2023-03-25T01:52:18.345Z,118.75
2023-03-25T01:54:46.475Z,118.64
2023-03-25T01:57:18.401Z,118.96
2023-03-25T01:59:45.612Z,118.99
2023-03-25T02:02:15.740Z,118.98
2023-03-25T02:05:03.987Z,118.99
2023-03-25T02:07:36.704Z,118.91
2023-03-25T02:10:09.718Z,118.99
2023-03-25T02:12:36.555Z,118.99
2023-03-25T02:15:06.583Z,118.99
2023-03-25T02:17:45.772Z,118.99
2023-03-25T02:20:46.270Z,118.57
2023-03-25T02:23:28.699Z,118.55
2023-03-25T02:26:20.858Z,118.00
2023-03-25T02:28:57.496Z,118.31
2023-03-25T02:31:46.457Z,118.40
2023-03-25T02:34:41.965Z,118.30
2023-03-25T02:37:33.741Z,118.69
2023-03-25T02:40:08.626Z,118.74
2023-03-25T02:42:46.970Z,118.99
2023-03-25T02:45:29.633Z,118.99
2023-03-25T02:48:01.741Z,118.99
2023-03-25T02:50:35.434Z,118.99
2023-03-25T02:53:08.698Z,118.99
2023-03-25T02:55:35.965Z,118.99
2023-03-25T02:58:06.354Z,118.99
2023-03-25T03:00:34.529Z,118.71
2023-03-25T03:03:04.173Z,118.68
2023-03-25T03:05:43.838Z,118.99
2023-03-25T03:08:19.131Z,118.99
2023-03-25T03:11:13.451Z,118.90
2023-03-25T03:13:51.956Z,118.99
2023-03-25T03:16:49.940Z,118.99
2023-03-25T03:19:25.690Z,118.99
2023-03-25T03:21:52.476Z,118.99
2023-03-25T03:24:32.519Z,118.99
2023-03-25T03:27:17.510Z,118.99
2023-03-25T03:29:44.204Z,118.99
2023-03-25T03:32:22.781Z,118.99
2023-03-25T03:34:53.576Z,118.99
2023-03-25T03:37:32.997Z,118.99
2023-03-25T03:40:02.756Z,118.99
2023-03-25T03:42:37.602Z,118.99
2023-03-25T03:45:10.040Z,118.87
2023-03-25T03:47:44.331Z,118.99
2023-03-25T03:50:15.977Z,118.99
2023-03-25T03:52:50.551Z,118.99
2023-03-25T03:55:37.868Z,118.99
2023-03-25T03:58:23.442Z,118.85
2023-03-25T04:01:30.557Z,118.94
2023-03-25T04:04:01.461Z,118.99
2023-03-25T04:06:38.792Z,118.66
2023-03-25T04:09:27.396Z,118.57
2023-03-25T04:12:00.294Z,118.76
2023-03-25T04:14:27.469Z,118.99
2023-03-25T04:16:55.642Z,118.38
2023-03-25T04:19:23.815Z,118.18
2023-03-25T04:21:50.734Z,118.34
2023-03-25T04:24:19.780Z,118.26
2023-03-25T04:26:47.688Z,118.05
2023-03-25T04:29:14.593Z,118.23
2023-03-25T04:31:46.573Z,118.53
2023-03-25T04:34:15.031Z,118.55
2023-03-25T04:36:43.156Z,118.79
2023-03-25T04:39:13.058Z,118.52
2023-03-25T04:41:40.097Z,117.89
2023-03-25T04:44:07.743Z,118.02
2023-03-25T04:46:36.584Z,117.26
2023-03-25T04:49:06.124Z,117.46
2023-03-25T04:51:33.295Z,117.63
2023-03-25T04:54:00.856Z,117.86
2023-03-25T04:56:27.913Z,117.09
2023-03-25T04:58:54.873Z,116.84
2023-03-25T05:01:30.789Z,116.18
2023-03-25T05:04:05.153Z,115.92
2023-03-25T05:06:38.351Z,115.80
2023-03-25T05:09:07.166Z,115.15
2023-03-25T05:11:37.098Z,114.35
2023-03-25T05:14:04.216Z,114.53
2023-03-25T05:16:31.078Z,114.76
2023-03-25T05:18:57.861Z,114.74
2023-03-25T05:21:24.628Z,114.70
2023-03-25T05:23:52.683Z,114.55
2023-03-25T05:26:20.836Z,114.06
2023-03-25T05:28:51.474Z,114.03
2023-03-25T05:31:18.685Z,114.22
2023-03-25T05:33:45.511Z,113.81
2023-03-25T05:36:13.818Z,114.00
2023-03-25T05:38:41.791Z,114.06
2023-03-25T05:41:12.211Z,113.54
2023-03-25T05:43:38.969Z,113.35
2023-03-25T05:46:06.157Z,113.18
2023-03-25T05:48:32.981Z,112.93
2023-03-25T05:51:04.315Z,112.49
2023-03-25T05:53:33.015Z,112.71
2023-03-25T05:55:59.811Z,112.87
2023-03-25T05:58:26.481Z,112.64
2023-03-25T06:00:53.283Z,112.01
2023-03-25T06:03:21.068Z,111.68
2023-03-25T06:05:48.524Z,111.83
2023-03-25T06:08:17.178Z,111.97
2023-03-25T06:10:45.863Z,111.57
2023-03-25T06:13:12.654Z,111.18
2023-03-25T06:15:41.876Z,110.81
2023-03-25T06:18:10.557Z,110.21
2023-03-25T06:20:37.421Z,110.10
2023-03-25T06:23:04.185Z,109.74
2023-03-25T06:25:31.300Z,108.87
2023-03-25T06:28:03.098Z,108.65
2023-03-25T06:30:29.932Z,108.36
2023-03-25T06:32:58.680Z,108.24
2023-03-25T06:35:25.603Z,107.56
2023-03-25T06:37:52.555Z,107.05
2023-03-25T06:40:20.104Z,106.90
2023-03-25T06:42:46.965Z,106.39
2023-03-25T06:45:13.951Z,107.11
2023-03-25T06:47:40.712Z,107.04
2023-03-25T06:50:08.102Z,107.18
2023-03-25T06:52:35.961Z,106.34
2023-03-25T06:55:02.898Z,105.17
2023-03-25T06:57:29.577Z,102.58
2023-03-25T06:59:56.303Z,102.33
2023-03-25T07:02:23.127Z,102.12
2023-03-25T07:04:49.967Z,102.59
2023-03-25T07:07:16.802Z,102.31
2023-03-25T07:09:43.749Z,102.81
2023-03-25T07:12:10.573Z,102.70
2023-03-25T07:14:37.445Z,102.33
2023-03-25T07:17:04.139Z,102.54
2023-03-25T07:19:31.017Z,105.44
2023-03-25T07:21:57.770Z,106.35
2023-03-25T07:24:24.488Z,108.38
2023-03-25T07:26:51.299Z,108.79
2023-03-25T07:29:18.084Z,111.02
2023-03-25T07:31:46.951Z,112.77
2023-03-25T07:34:13.986Z,113.81
2023-03-25T07:36:41.056Z,115.61
2023-03-25T07:39:08.028Z,116.44
2023-03-25T07:41:34.984Z,116.81
2023-03-25T07:44:01.749Z,117.96
2023-03-25T07:46:28.668Z,118.33
2023-03-25T07:48:55.888Z,118.55
2023-03-25T07:51:22.795Z,118.99
2023-03-25T07:53:49.690Z,118.99
2023-03-25T07:56:16.504Z,118.99
2023-03-25T07:58:44.460Z,118.99
2023-03-25T08:01:12.078Z,118.99
2023-03-25T08:03:40.050Z,118.99
2023-03-25T08:06:07.886Z,118.99
2023-03-25T08:08:35.391Z,118.99
2023-03-25T08:11:02.325Z,118.99
2023-03-25T08:13:30.329Z,118.99
2023-03-25T08:15:57.214Z,118.35
2023-03-25T08:18:24.725Z,117.83
2023-03-25T08:20:52.236Z,115.79
2023-03-25T08:23:20.178Z,115.83
2023-03-25T08:25:51.820Z,115.61
2023-03-25T08:28:23.016Z,115.26
2023-03-25T08:30:54.969Z,114.54
2023-03-25T08:33:27.284Z,114.06
2023-03-25T08:35:57.505Z,113.87
2023-03-25T08:38:25.301Z,114.48
2023-03-25T08:40:52.073Z,115.11
2023-03-25T08:43:19.001Z,115.36
2023-03-25T08:45:45.889Z,115.32
2023-03-25T08:48:12.769Z,114.67
2023-03-25T08:50:39.567Z,111.74
2023-03-25T08:53:06.705Z,109.99
2023-03-25T08:55:33.628Z,110.74
2023-03-25T08:58:06.118Z,111.29
2023-03-25T09:00:33.019Z,111.63
2023-03-25T09:03:00.773Z,112.84
2023-03-25T09:05:27.627Z,113.68
2023-03-25T09:07:54.636Z,110.29
2023-03-25T09:10:24.221Z,110.16
2023-03-25T09:12:51.775Z,111.82
2023-03-25T09:15:18.945Z,112.84
2023-03-25T09:17:45.840Z,112.64
2023-03-25T09:20:12.678Z,114.29
2023-03-25T09:22:40.449Z,112.98
2023-03-25T09:25:07.911Z,113.25
2023-03-25T09:27:35.703Z,114.18
2023-03-25T09:30:03.585Z,112.45
2023-03-25T09:32:31.124Z,112.80
2023-03-25T09:34:57.862Z,114.45
2023-03-25T09:37:24.956Z,113.27
2023-03-25T09:39:52.166Z,114.08
2023-03-25T09:42:37.600Z,113.38
2023-03-25T09:45:26.200Z,113.71
2023-03-25T09:48:11.616Z,112.63
2023-03-25T09:50:41.239Z,110.59
2023-03-25T09:53:34.358Z,110.44
2023-03-25T09:56:02.888Z,108.96
2023-03-25T09:58:46.893Z,98.09
2023-03-25T10:01:37.640Z,92.64
2023-03-25T10:04:34.768Z,88.65
2023-03-25T10:07:15.759Z,86.30
2023-03-25T10:09:54.814Z,88.00
2023-03-25T10:12:41.694Z,87.83
2023-03-25T10:15:20.414Z,89.43
2023-03-25T10:17:56.873Z,81.47
2023-03-25T10:20:30.517Z,84.55
2023-03-25T10:23:07.479Z,83.62
2023-03-25T10:25:38.334Z,81.78
2023-03-25T10:28:06.444Z,86.23
2023-03-25T10:30:41.644Z,87.94
2023-03-25T10:33:37.317Z,89.38
2023-03-25T10:36:06.663Z,89.37
2023-03-25T10:38:36.464Z,90.50
2023-03-25T10:41:20.754Z,89.01
2023-03-25T10:43:47.582Z,89.77
2023-03-25T10:46:31.729Z,86.93
2023-03-25T10:48:58.725Z,87.59
2023-03-25T10:51:35.620Z,86.46
2023-03-25T10:54:02.886Z,83.61
2023-03-25T10:56:39.406Z,84.72
2023-03-25T10:59:31.780Z,85.55
2023-03-25T11:01:59.726Z,83.72
2023-03-25T11:04:34.681Z,83.17
2023-03-25T11:07:05.718Z,83.32
2023-03-25T11:09:34.366Z,83.88
2023-03-25T11:12:04.537Z,84.94
2023-03-25T11:14:36.157Z,86.00
2023-03-25T11:17:05.853Z,87.17
2023-03-25T11:19:46.926Z,86.07
2023-03-25T11:22:26.519Z,83.97
2023-03-25T11:25:06.446Z,84.00
2023-03-25T11:27:45.281Z,84.39
2023-03-25T11:30:21.033Z,83.68
2023-03-25T11:33:05.638Z,83.12
2023-03-25T11:35:38.311Z,85.79
2023-03-25T11:38:19.215Z,85.42
2023-03-25T11:40:57.934Z,86.58
2023-03-25T11:43:35.234Z,97.16
2023-03-25T11:46:14.860Z,101.89
2023-03-25T11:48:43.779Z,106.46
2023-03-25T11:51:16.378Z,111.10
2023-03-25T11:53:47.247Z,113.01
2023-03-25T11:56:22.156Z,113.58
2023-03-25T11:58:52.030Z,114.57
2023-03-25T12:01:28.400Z,115.63
2023-03-25T12:04:27.598Z,116.87
2023-03-25T12:07:11.755Z,116.91
2023-03-25T12:09:54.690Z,117.68
2023-03-25T12:12:32.307Z,117.73
2023-03-25T12:15:23.998Z,117.38
2023-03-25T12:18:01.013Z,116.63
2023-03-25T12:20:54.677Z,116.54
2023-03-25T12:23:38.637Z,117.00
2023-03-25T12:26:37.439Z,115.14
2023-03-25T12:29:13.259Z,115.51
2023-03-25T12:32:08.955Z,112.78
2023-03-25T12:35:08.607Z,112.66
2023-03-25T12:38:00.533Z,111.16
2023-03-25T12:40:29.967Z,110.78
2023-03-25T12:43:16.672Z,107.41
2023-03-25T12:46:25.718Z,107.18
2023-03-25T12:48:59.103Z,101.73
2023-03-25T12:52:03.272Z,97.51
2023-03-25T12:54:35.554Z,97.14
2023-03-25T12:57:40.900Z,93.96
2023-03-25T13:00:26.234Z,91.43
2023-03-25T13:03:14.860Z,92.46
2023-03-25T13:05:54.396Z,87.21
2023-03-25T13:08:57.071Z,84.25
2023-03-25T13:11:31.776Z,85.16
2023-03-25T13:14:04.915Z,84.46
2023-03-25T13:16:34.089Z,82.68
2023-03-25T13:19:10.610Z,84.29
2023-03-25T13:21:43.763Z,86.70
2023-03-25T13:24:24.844Z,88.82
2023-03-25T13:26:53.948Z,91.94
2023-03-25T13:29:29.923Z,92.43
2023-03-25T13:32:01.487Z,93.31
2023-03-25T13:34:28.544Z,94.03
2023-03-25T13:37:10.189Z,94.04
2023-03-25T13:40:15.776Z,94.75
2023-03-25T13:42:53.640Z,96.09
2023-03-25T13:45:22.860Z,96.35
2023-03-25T13:48:01.367Z,96.75
2023-03-25T13:50:31.039Z,97.08
2023-03-25T13:53:04.671Z,98.18
2023-03-25T13:55:46.527Z,98.66
2023-03-25T13:58:34.140Z,100.77
2023-03-25T14:01:21.621Z,101.99
2023-03-25T14:04:29.676Z,107.53
2023-03-25T14:07:02.188Z,110.52
2023-03-25T14:09:41.645Z,105.92
2023-03-25T14:12:29.904Z,106.58
2023-03-25T14:15:04.104Z,102.97
2023-03-25T14:17:32.922Z,102.14
2023-03-25T14:20:00.633Z,100.03
2023-03-25T14:22:30.753Z,96.32
2023-03-25T14:24:59.542Z,89.49
2023-03-25T14:27:37.598Z,89.02
2023-03-25T14:30:06.056Z,91.56
2023-03-25T14:32:35.802Z,91.51
2023-03-25T14:35:34.045Z,90.67
2023-03-25T14:38:21.951Z,86.63
2023-03-25T14:41:02.994Z,89.03
2023-03-25T14:43:38.665Z,90.31
2023-03-25T14:46:19.038Z,91.26
2023-03-25T14:49:04.387Z,93.59
2023-03-25T14:51:31.333Z,95.11
2023-03-25T14:54:32.456Z,96.74
2023-03-25T14:57:07.279Z,96.74
2023-03-25T14:59:48.624Z,98.32
2023-03-25T15:02:25.934Z,98.42
2023-03-25T15:05:20.939Z,99.19
2023-03-25T15:07:59.009Z,100.44
2023-03-25T15:10:36.518Z,100.10
2023-03-25T15:13:09.051Z,100.56
2023-03-25T15:15:44.965Z,101.00
2023-03-25T15:18:12.938Z,101.57
2023-03-25T15:20:39.789Z,102.00
2023-03-25T15:23:18.562Z,102.31
2023-03-25T15:25:54.827Z,103.36
2023-03-25T15:28:30.682Z,104.79
2023-03-25T15:31:12.640Z,107.17
2023-03-25T15:33:59.535Z,106.59
2023-03-25T15:36:47.947Z,108.65
2023-03-25T15:39:37.212Z,108.55
2023-03-25T15:42:04.088Z,108.49
2023-03-25T15:44:49.363Z,108.78
2023-03-25T15:47:28.620Z,108.94
2023-03-25T15:50:14.583Z,109.59
2023-03-25T15:52:59.937Z,109.49
2023-03-25T15:55:31.405Z,109.18
2023-03-25T15:58:02.941Z,105.24
2023-03-25T16:00:37.441Z,106.05
2023-03-25T16:03:12.132Z,105.68
2023-03-25T16:05:47.260Z,106.53
2023-03-25T16:08:22.386Z,106.24
2023-03-25T16:10:49.465Z,105.40
2023-03-25T16:13:24.201Z,105.62
2023-03-25T16:15:55.603Z,105.93
2023-03-25T16:18:24.515Z,106.68
2023-03-25T16:21:01.639Z,107.12
2023-03-25T16:23:30.787Z,107.49
2023-03-25T16:25:57.556Z,107.30
2023-03-25T16:28:31.531Z,107.46
2023-03-25T16:30:58.529Z,106.69
2023-03-25T16:33:38.440Z,106.67
2023-03-25T16:36:09.351Z,106.56
2023-03-25T16:38:36.591Z,106.29
2023-03-25T16:41:07.598Z,107.06
2023-03-25T16:43:34.602Z,106.94
2023-03-25T16:46:03.720Z,107.82
2023-03-25T16:48:48.936Z,107.91
2023-03-25T16:51:21.169Z,108.63
2023-03-25T16:53:52.021Z,109.31
2023-03-25T16:56:30.925Z,110.16
2023-03-25T16:59:02.550Z,110.47
2023-03-25T17:01:33.547Z,110.87
2023-03-25T17:04:17.281Z,110.89
2023-03-25T17:06:52.589Z,111.35
2023-03-25T17:09:28.345Z,111.32
2023-03-25T17:11:57.666Z,111.50
2023-03-25T17:14:33.592Z,111.39
2023-03-25T17:17:25.708Z,111.55
2023-03-25T17:19:52.861Z,111.32
2023-03-25T17:22:39.787Z,110.50
2023-03-25T17:25:24.814Z,111.03
2023-03-25T17:28:00.835Z,110.91
2023-03-25T17:30:40.666Z,111.36
2023-03-25T17:33:18.048Z,111.43
2023-03-25T17:35:51.833Z,111.26
2023-03-25T17:38:28.475Z,112.11
2023-03-25T17:41:09.835Z,111.85
2023-03-25T17:43:41.843Z,112.55
2023-03-25T17:46:09.591Z,112.47
2023-03-25T17:48:36.770Z,113.29
2023-03-25T17:51:04.026Z,113.30
2023-03-25T17:53:30.835Z,113.51
2023-03-25T17:55:59.285Z,113.52
2023-03-25T17:58:26.388Z,113.66
2023-03-25T18:00:53.423Z,113.54
2023-03-25T18:03:23.821Z,113.58
2023-03-25T18:05:53.858Z,113.68
2023-03-25T18:08:24.795Z,113.74
2023-03-25T18:10:53.673Z,113.20
2023-03-25T18:13:25.081Z,112.31
2023-03-25T18:15:53.338Z,112.53
2023-03-25T18:18:24.279Z,112.55
2023-03-25T18:20:53.063Z,112.56
2023-03-25T18:23:20.516Z,112.68
2023-03-25T18:25:47.915Z,113.25
2023-03-25T18:28:15.992Z,112.42
2023-03-25T18:30:49.829Z,112.51
2023-03-25T18:33:17.382Z,112.39
2023-03-25T18:35:44.825Z,112.72
2023-03-25T18:38:20.292Z,112.11
2023-03-25T18:40:48.229Z,112.83
2023-03-25T18:43:15.610Z,112.82
2023-03-25T18:45:42.829Z,112.83
2023-03-25T18:48:14.837Z,113.26
2023-03-25T18:50:52.591Z,113.71
2023-03-25T18:53:21.670Z,113.47
2023-03-25T18:55:49.389Z,113.48
2023-03-25T18:58:22.669Z,113.67
2023-03-25T19:00:51.331Z,113.80
2023-03-25T19:03:19.118Z,113.43
2023-03-25T19:05:46.283Z,114.24
2023-03-25T19:08:19.484Z,113.61
2023-03-25T19:10:47.275Z,114.46
2023-03-25T19:13:15.087Z,113.69
2023-03-25T19:15:43.123Z,114.08
2023-03-25T19:18:19.587Z,114.48
2023-03-25T19:20:48.385Z,113.05
2023-03-25T19:23:16.756Z,113.51
2023-03-25T19:25:48.603Z,114.13
2023-03-25T19:28:16.791Z,114.47
2023-03-25T19:30:46.360Z,114.38
2023-03-25T19:33:13.813Z,114.42
2023-03-25T19:35:41.434Z,114.48
2023-03-25T19:38:08.631Z,114.34
2023-03-25T19:40:40.910Z,113.40
2023-03-25T19:43:07.788Z,113.58
2023-03-25T19:45:35.594Z,113.85
2023-03-25T19:48:02.475Z,113.58
2023-03-25T19:50:32.072Z,113.19
2023-03-25T19:53:01.482Z,113.80
2023-03-25T19:55:28.582Z,114.57
2023-03-25T19:57:55.756Z,114.80
2023-03-25T20:00:26.516Z,115.67
2023-03-25T20:03:00.929Z,115.31
2023-03-25T20:05:30.761Z,114.26
2023-03-25T20:07:57.885Z,113.87
2023-03-25T20:10:27.882Z,113.92
2023-03-25T20:12:55.556Z,113.35
2023-03-25T20:15:24.508Z,113.79
2023-03-25T20:17:53.450Z,112.77
2023-03-25T20:20:21.422Z,112.59
2023-03-25T20:22:48.608Z,112.17
2023-03-25T20:25:16.319Z,112.31
2023-03-25T20:27:44.099Z,112.79
2023-03-25T20:30:14.460Z,112.26
2023-03-25T20:33:06.735Z,112.04
2023-03-25T20:35:34.335Z,112.23
2023-03-25T20:38:01.209Z,112.43
2023-03-25T20:40:41.614Z,112.19
2023-03-25T20:43:13.917Z,112.74
2023-03-25T20:45:41.373Z,112.68
2023-03-25T20:48:08.893Z,112.72
2023-03-25T20:50:36.021Z,112.81
2023-03-25T20:53:02.771Z,113.13
2023-03-25T20:55:29.552Z,113.35
2023-03-25T20:57:56.679Z,112.90
2023-03-25T21:00:23.368Z,112.99
2023-03-25T21:02:50.839Z,113.29
2023-03-25T21:05:17.924Z,113.45
2023-03-25T21:07:44.711Z,113.71
2023-03-25T21:10:11.585Z,113.41
2023-03-25T21:12:43.832Z,114.22
2023-03-25T21:15:12.093Z,114.06
2023-03-25T21:17:38.950Z,113.89
2023-03-25T21:20:09.314Z,114.38
2023-03-25T21:22:42.908Z,113.99
2023-03-25T21:25:10.915Z,113.95
2023-03-25T21:27:39.167Z,114.90
2023-03-25T21:30:09.760Z,114.64
2023-03-25T21:32:38.071Z,114.50
2023-03-25T21:35:05.082Z,115.39
2023-03-25T21:37:38.530Z,115.19
2023-03-25T21:40:08.266Z,115.40
2023-03-25T21:42:38.236Z,115.74
2023-03-25T21:45:07.615Z,116.10
2023-03-25T21:47:35.946Z,116.96
2023-03-25T21:50:06.447Z,118.16
2023-03-25T21:52:33.969Z,118.68
2023-03-25T21:55:00.896Z,118.52
2023-03-25T21:57:30.729Z,118.44
2023-03-25T21:59:57.526Z,118.71
2023-03-25T22:02:25.562Z,118.45
2023-03-25T22:04:52.390Z,117.86
2023-03-25T22:07:19.163Z,117.28
2023-03-25T22:09:48.018Z,117.14
2023-03-25T22:12:14.844Z,118.36
2023-03-25T22:14:41.636Z,118.99
2023-03-25T22:17:08.555Z,118.99
2023-03-25T22:19:35.559Z,118.99
2023-03-25T22:22:03.301Z,118.99
2023-03-25T22:24:31.627Z,118.99
2023-03-25T22:26:58.462Z,118.99
2023-03-25T22:29:25.637Z,118.99
2023-03-25T22:31:55.924Z,118.99
2023-03-25T22:34:22.890Z,118.99
2023-03-25T22:36:50.647Z,118.99
2023-03-25T22:39:20.635Z,118.99
2023-03-25T22:41:47.919Z,118.99
2023-03-25T22:44:17.087Z,118.99
2023-03-25T22:46:48.043Z,118.99
2023-03-25T22:49:16.128Z,118.99
2023-03-25T22:51:43.724Z,118.99
2023-03-25T22:54:10.852Z,118.99
2023-03-25T22:56:38.239Z,118.99
2023-03-25T22:59:07.153Z,118.99
2023-03-25T23:01:36.207Z,118.99
2023-03-25T23:04:03.903Z,118.99
2023-03-25T23:06:33.280Z,118.99
2023-03-25T23:09:00.529Z,118.99
2023-03-25T23:11:30.275Z,118.99
2023-03-25T23:14:13.347Z,118.99
2023-03-25T23:16:41.809Z,118.99
2023-03-25T23:19:10.189Z,118.99
2023-03-25T23:21:38.502Z,118.99
2023-03-25T23:24:05.707Z,118.99
2023-03-25T23:26:40.291Z,118.99
2023-03-25T23:29:10.742Z,118.99
2023-03-25T23:31:41.198Z,118.99
2023-03-25T23:34:14.419Z,118.99
2023-03-25T23:36:41.828Z,118.99
2023-03-25T23:39:12.270Z,118.99
2023-03-25T23:41:39.338Z,118.99
2023-03-25T23:44:06.437Z,118.99
2023-03-25T23:46:34.299Z,118.99
2023-03-25T23:49:04.953Z,118.99
2023-03-25T23:51:37.291Z,118.99
2023-03-25T23:54:06.431Z,118.99
2023-03-25T23:56:33.683Z,118.99
2023-03-25T23:59:01.679Z,118.99
